Detailed System and Site Information

System Data Health
Measure Timestamp Ago Health
Web Server Live 23:29:16, 30th April 2016 0 s health
Last live-data upload from local system (nw3) 23:29:08, 30th April 2016 8 s health
Last upload of secondary data 23:00:23, 30th April 2016 29 mins health
Latest Webcam upload 23:29:08, 30th April 2016 8 s health
Last upload of 24hr data log 23:29:08, 30th April 2016 8 s health
Last full data process 23:25:02, 30th April 2016 4 mins health
Last data downtime (>15 mins) 14:46:02, 25th February 2016 65 days
Local System and Site Information
Measure Value
WD Version & Build # 10.37R - 40
WD Start Time 08:14 22/04/16
WD Data Count 257766
WD Memory Use 62,964 K
--- ---
Windows Uptime 8 Days 14 Hours 46 Minutes 4 Seconds
Free System Memory 2471 MB (Max: 4GB)
--- ---
Station Altitude 57 m (187 ft)
Station Latitude 51.556
Station Longitude -0.154
Machine Room Conditions
Measure Value
Temperature 21.8 °C
Temperature Trend -0.6 °C /hr
Relative Humidity 33%
Dew Point 4.8 °C
--- ---
Tmin Today 18.3 °C at 07:34
Tmax Today 23.1 °C at 20:03
Hmin Today 29% at 12:24
Hmax Today 33% at 20:23
Tmin Yesterday 18.5 °C at 06:14
Tmax Yesterday 22.5 °C at 21:24

Site owner and administrator: Ben Lee-Rodgers (2010 - present)

Last 10hrs Temp/Hum for Secondary Sensor and Indoors

Extra Sensors/Indoor

Other

Raw METAR from EGLL (Heathrow)

EGLL 302150Z AUTO 27005KT 9999 NCD 07/02 Q1027 NOSIG
Decode Instructions
Source

WD Screenshot

not available